Time;durP1;ratioP1;P1;durP2;ratioP2;P2;SDS_P1;SDS_P2;PMS_P1;PMS_P2;Temp;Humidity;BMP_temperature;BMP_pressure;BME280_temperature;BME280_humidity;BME280_pressure;Samples;Min_cycle;Max_cycle;Signal;HPM_P1;HPM_P2
2022/08/31 00:04:14;;;;;;;3.42;2.60;;;;;;;26.22;58.74;100630.91;4862479;29;20048;-69
2022/08/31 00:06:59;;;;;;;4.10;3.08;;;;;;;26.15;59.00;100627.44;4862098;29;20068;-70
2022/08/31 00:09:44;;;;;;;11.75;2.80;;;;;;;26.16;58.42;100626.97;4864874;29;20052;-69
2022/08/31 00:12:30;;;;;;;4.90;2.75;;;;;;;26.18;59.11;100619.00;4880616;29;20431;-71
2022/08/31 00:15:18;;;;;;;4.15;2.67;;;;;;;26.23;59.36;100620.53;4880788;29;20409;-70
2022/08/31 00:18:04;;;;;;;3.50;2.10;;;;;;;26.18;59.50;100621.78;4881319;29;20056;-70
2022/08/31 00:20:49;;;;;;;4.18;2.50;;;;;;;26.16;59.84;100620.66;4872809;29;20508;-70
2022/08/31 00:23:34;;;;;;;5.30;2.83;;;;;;;26.11;59.80;100621.91;4884145;29;20520;-70
2022/08/31 00:26:20;;;;;;;4.10;2.95;;;;;;;26.06;60.37;100616.81;4879907;29;20052;-70
2022/08/31 00:29:06;;;;;;;3.78;2.80;;;;;;;26.02;60.54;100624.44;4879501;29;20512;-70
2022/08/31 00:31:50;;;;;;;4.90;2.55;;;;;;;26.00;61.03;100626.88;4880473;29;20052;-70
2022/08/31 00:34:36;;;;;;;5.28;3.22;;;;;;;25.94;61.06;100614.63;4880436;29;20079;-69
2022/08/31 00:37:20;;;;;;;3.05;2.72;;;;;;;26.00;61.11;100610.16;4880540;29;20060;-69
2022/08/31 00:40:06;;;;;;;9.75;3.03;;;;;;;25.98;61.33;100607.00;4880447;29;20505;-69
2022/08/31 00:42:51;;;;;;;7.85;2.65;;;;;;;25.90;61.46;100609.13;4879284;29;20334;-70
2022/08/31 00:45:36;;;;;;;3.17;2.83;;;;;;;25.88;61.58;100605.16;4878499;29;20516;-70
2022/08/31 00:48:21;;;;;;;3.58;2.75;;;;;;;25.90;61.58;100609.13;4876298;29;20088;-70
2022/08/31 00:51:06;;;;;;;5.00;2.70;;;;;;;25.86;61.82;100597.22;4892206;29;20055;-70
2022/08/31 00:53:51;;;;;;;3.80;2.70;;;;;;;25.89;61.46;100599.19;4896503;29;20416;-70
2022/08/31 00:56:38;;;;;;;5.88;2.83;;;;;;;25.87;61.44;100595.22;4891540;29;20523;-71
2022/08/31 00:59:24;;;;;;;3.60;3.10;;;;;;;25.81;61.41;100600.47;4879120;29;20055;-71
2022/08/31 01:02:09;;;;;;;4.68;2.80;;;;;;;25.80;61.15;100595.34;4879095;29;20065;-68
2022/08/31 01:04:55;;;;;;;5.50;2.67;;;;;;;25.74;61.28;100606.19;4878983;29;20047;-70
2022/08/31 01:07:41;;;;;;;3.72;2.67;;;;;;;25.79;61.08;100614.06;4878977;29;20051;-70
2022/08/31 01:10:31;;;;;;;3.83;2.67;;;;;;;25.82;61.07;100615.19;4878879;29;20045;-70
2022/08/31 01:13:16;;;;;;;3.58;2.65;;;;;;;25.78;60.95;100612.47;4878907;29;20064;-68
2022/08/31 01:16:09;;;;;;;6.28;3.30;;;;;;;25.77;61.23;100610.91;4880631;29;20405;-70
2022/08/31 01:18:57;;;;;;;3.95;3.10;;;;;;;25.73;61.67;100607.38;4878363;29;20048;-69
2022/08/31 01:21:51;;;;;;;4.72;3.03;;;;;;;25.74;61.72;100614.53;4878703;29;20276;-71
2022/08/31 01:24:40;;;;;;;7.75;4.35;;;;;;;25.74;61.91;100614.53;4860350;29;20049;-70
2022/08/31 01:27:30;;;;;;;9.15;5.93;;;;;;;25.83;61.66;100616.78;4859995;29;20423;-70
2022/08/31 01:30:22;;;;;;;12.25;9.02;;;;;;;25.90;61.21;100625.03;4870204;29;20523;-70
2022/08/31 01:33:08;;;;;;;16.15;10.70;;;;;;;25.85;61.53;100622.72;4897334;29;20048;-70
2022/08/31 01:35:53;;;;;;;26.58;12.80;;;;;;;25.85;61.55;100628.31;4896976;29;20048;-70
2022/08/31 01:38:38;;;;;;;15.43;12.10;;;;;;;25.83;61.37;100627.94;4897063;29;20493;-70
2022/08/31 01:41:23;;;;;;;15.80;12.25;;;;;;;25.78;61.38;100628.41;4897130;29;20044;-70
2022/08/31 01:44:09;;;;;;;16.75;12.73;;;;;;;25.75;61.86;100630.03;4896113;29;20284;-71
2022/08/31 01:46:55;;;;;;;23.88;11.98;;;;;;;25.66;61.70;100623.41;4896977;29;20045;-71
2022/08/31 01:49:39;;;;;;;17.25;11.80;;;;;;;25.77;61.35;100629.59;4896864;29;20036;-70
2022/08/31 01:52:26;;;;;;;16.25;11.35;;;;;;;25.70;61.89;100629.72;4896818;29;20048;-70
2022/08/31 01:55:11;;;;;;;16.17;9.80;;;;;;;25.72;61.17;100627.28;4896940;29;20574;-70
2022/08/31 01:57:58;;;;;;;12.80;9.82;;;;;;;25.70;61.34;100638.84;4896522;29;20051;-70
2022/08/31 02:01:06;;;;;;;16.77;8.75;;;;;;;25.68;61.05;100629.34;4896870;29;20433;-69
2022/08/31 02:03:51;;;;;;;11.05;8.45;;;;;;;25.69;60.81;100633.72;4896894;29;20165;-70
2022/08/31 02:06:36;;;;;;;12.77;7.32;;;;;;;25.74;60.69;100625.69;4896895;29;20067;-69
2022/08/31 02:09:22;;;;;;;11.63;8.25;;;;;;;25.75;60.16;100623.69;4890585;29;20429;-70
2022/08/31 02:12:07;;;;;;;8.43;6.45;;;;;;;25.76;59.99;100628.03;4877682;29;20040;-68
2022/08/31 02:14:56;;;;;;;7.75;6.25;;;;;;;25.77;59.74;100629.59;4877898;29;20060;-70
2022/08/31 02:17:41;;;;;;;8.85;6.18;;;;;;;25.76;59.51;100625.25;4877746;29;20694;-70
2022/08/31 02:20:26;;;;;;;8.20;5.53;;;;;;;25.74;59.65;100624.88;4877822;29;20393;-70
2022/08/31 02:23:11;;;;;;;6.10;5.50;;;;;;;25.76;59.21;100630.81;4877714;29;20052;-71
2022/08/31 02:25:57;;;;;;;11.63;6.28;;;;;;;25.76;59.29;100634.38;4879688;29;20420;-68
2022/08/31 02:28:42;;;;;;;6.60;5.38;;;;;;;25.75;59.28;100623.69;4887467;29;20528;-70
2022/08/31 02:31:28;;;;;;;6.78;5.32;;;;;;;25.71;59.19;100620.94;4877626;29;20055;-70
2022/08/31 02:34:17;;;;;;;7.35;5.10;;;;;;;25.69;59.11;100617.78;4895863;29;20051;-70
2022/08/31 02:37:03;;;;;;;7.20;6.40;;;;;;;25.63;59.55;100624.25;4881291;29;20512;-70
2022/08/31 02:39:47;;;;;;;7.13;5.22;;;;;;;25.61;59.69;100626.66;4896060;29;20059;-70
2022/08/31 02:42:33;;;;;;;12.00;5.93;;;;;;;25.57;59.67;100631.50;4896188;29;20052;-70
2022/08/31 02:45:19;;;;;;;7.57;4.72;;;;;;;25.51;59.49;100634.72;4896348;29;20075;-69
2022/08/31 02:48:06;;;;;;;7.65;4.72;;;;;;;25.48;60.08;100635.56;4895999;29;20072;-70
2022/08/31 02:51:03;;;;;;;9.68;5.18;;;;;;;25.45;60.06;100633.59;4896011;29;20048;-70
2022/08/31 02:53:49;;;;;;;6.60;4.47;;;;;;;25.45;59.96;100635.59;4895936;29;20507;-70
2022/08/31 02:56:34;;;;;;;7.75;3.75;;;;;;;25.44;59.83;100625.69;4896592;29;20056;-70
2022/08/31 02:59:19;;;;;;;6.00;3.40;;;;;;;25.42;60.08;100628.09;4895763;29;20055;-69
2022/08/31 03:02:04;;;;;;;4.88;3.25;;;;;;;25.42;59.91;100628.09;4896114;29;20047;-70
2022/08/31 03:04:52;;;;;;;11.65;3.00;;;;;;;25.37;60.13;100632.13;4895885;29;20508;-70
2022/08/31 03:07:38;;;;;;;5.45;3.30;;;;;;;25.39;59.68;100640.06;4889640;29;20055;-69
2022/08/31 03:10:25;;;;;;;6.00;3.35;;;;;;;25.38;59.89;100641.28;4899855;29;20519;-70
2022/08/31 03:13:10;;;;;;;5.65;3.60;;;;;;;25.30;60.61;100637.78;4899849;29;20051;-70
2022/08/31 03:15:55;;;;;;;3.58;2.60;;;;;;;25.29;60.25;100646.56;4898319;29;20059;-70
2022/08/31 03:18:40;;;;;;;2.92;2.10;;;;;;;25.18;60.43;100643.13;4880044;29;20048;-70
2022/08/31 03:21:27;;;;;;;5.50;2.80;;;;;;;25.18;60.27;100641.13;4884831;29;20048;-71
2022/08/31 03:24:16;;;;;;;5.00;2.53;;;;;;;25.18;60.29;100641.13;4875076;29;20067;-70
2022/08/31 03:27:01;;;;;;;4.43;2.38;;;;;;;25.17;60.46;100645.13;4880714;29;20052;-70
2022/08/31 03:29:46;;;;;;;6.85;2.95;;;;;;;25.19;60.43;100651.06;4897731;29;20048;-70
2022/08/31 03:32:36;;;;;;;4.13;2.47;;;;;;;25.16;60.39;100649.09;4903773;29;20060;-70
2022/08/31 03:35:21;;;;;;;3.33;2.53;;;;;;;25.20;60.36;100655.41;4899422;29;20051;-70
2022/08/31 03:38:08;;;;;;;3.70;2.67;;;;;;;25.18;60.41;100657.84;4899259;29;20055;-70
2022/08/31 03:40:53;;;;;;;3.22;2.53;;;;;;;25.17;60.63;100650.69;4891499;29;20068;-70
2022/08/31 03:43:38;;;;;;;3.05;2.30;;;;;;;25.17;60.32;100647.91;4883559;29;20056;-71
2022/08/31 03:46:23;;;;;;;3.40;2.25;;;;;;;25.11;60.46;100650.34;4881116;29;20044;-71
2022/08/31 03:49:11;;;;;;;3.53;2.63;;;;;;;25.06;60.27;100650.00;4880278;29;20060;-68
2022/08/31 03:52:03;;;;;;;3.17;2.10;;;;;;;24.97;60.24;100638.59;4880146;29;20052;-70
2022/08/31 03:54:57;;;;;;;2.97;2.07;;;;;;;25.02;60.22;100649.28;4880484;29;20052;-70
2022/08/31 03:57:42;;;;;;;1.88;1.70;;;;;;;25.05;60.18;100640.09;4886057;29;20288;-70
2022/08/31 04:00:27;;;;;;;2.10;1.90;;;;;;;25.07;59.85;100651.59;4887699;29;20048;-70
2022/08/31 04:03:17;;;;;;;4.30;1.92;;;;;;;24.96;59.98;100651.72;4893086;29;20052;-70
2022/08/31 04:06:21;;;;;;;3.17;2.33;;;;;;;24.97;59.93;100650.53;4895122;29;20122;-71
2022/08/31 04:09:24;;;;;;;5.70;2.20;;;;;;;24.94;60.18;100650.56;4886824;29;20047;-70
2022/08/31 04:12:28;;;;;;;2.88;2.00;;;;;;;24.92;60.54;100652.97;4880352;29;20090;-70
2022/08/31 04:15:25;;;;;;;2.60;1.80;;;;;;;24.89;60.30;100653.81;4882619;29;20048;-70
2022/08/31 04:18:30;;;;;;;2.15;1.90;;;;;;;24.91;60.27;100657.75;4881063;29;20060;-70
2022/08/31 04:21:22;;;;;;;3.58;2.28;;;;;;;24.93;60.09;100651.78;4882175;29;20519;-70
2022/08/31 04:24:08;;;;;;;2.85;2.22;;;;;;;24.91;60.39;100651.38;4894984;29;20048;-70
2022/08/31 04:26:53;;;;;;;3.65;2.20;;;;;;;24.85;60.73;100658.56;4897882;29;20052;-70
2022/08/31 04:29:38;;;;;;;3.13;2.38;;;;;;;24.78;61.52;100659.44;4898610;29;20067;-69
2022/08/31 04:32:23;;;;;;;6.43;2.58;;;;;;;24.76;61.70;100652.72;4893678;29;20048;-70
2022/08/31 04:35:08;;;;;;;3.20;2.20;;;;;;;24.76;61.53;100650.72;4864045;29;20064;-69
2022/08/31 04:37:53;;;;;;;2.25;2.05;;;;;;;24.80;61.26;100653.44;4876955;29;20056;-70
2022/08/31 04:40:40;;;;;;;3.25;2.55;;;;;;;24.84;60.86;100657.00;4881716;29;20422;-70
2022/08/31 04:43:25;;;;;;;6.03;1.95;;;;;;;24.81;60.82;100657.81;4889001;29;20052;-69
2022/08/31 04:46:11;;;;;;;2.97;2.40;;;;;;;24.81;60.82;100652.25;4895087;29;20060;-68
2022/08/31 04:48:57;;;;;;;2.63;2.42;;;;;;;24.83;60.54;100653.44;4888991;29;20052;-70
2022/08/31 04:51:42;;;;;;;4.22;2.33;;;;;;;24.78;61.00;100653.09;4868192;29;20072;-70
2022/08/31 04:54:28;;;;;;;2.92;2.42;;;;;;;24.74;60.87;100663.47;4868245;29;20056;-68
2022/08/31 04:57:13;;;;;;;2.53;2.15;;;;;;;24.77;61.03;100665.41;4865734;29;20056;-69
2022/08/31 04:59:58;;;;;;;3.42;2.38;;;;;;;24.74;60.95;100669.81;4871926;29;20045;-68
2022/08/31 05:03:11;;;;;;;3.17;2.22;;;;;;;24.75;60.79;100676.16;4878210;29;20065;-70
2022/08/31 05:05:57;;;;;;;7.18;2.00;;;;;;;24.88;62.38;100675.28;4862693;29;20045;-64
2022/08/31 05:08:43;;;;;;;6.45;2.90;;;;;;;25.04;61.89;100683.06;4862249;29;20060;-63
2022/08/31 05:11:28;;;;;;;6.20;3.08;;;;;;;24.73;61.21;100684.13;4879829;23;20061;-83
2022/08/31 05:14:13;;;;;;;4.60;2.05;;;;;;;24.91;63.00;100668.06;4869300;29;20052;-82
2022/08/31 05:17:05;;;;;;;8.30;1.90;;;;;;;25.14;62.69;100682.91;4880297;29;20044;-81
2022/08/31 05:19:50;;;;;;;2.65;1.48;;;;;;;25.27;62.61;100685.16;4879189;29;20076;-81
2022/08/31 05:22:35;;;;;;;9.50;1.83;;;;;;;25.37;62.50;100676.69;4868161;29;20053;-80
2022/08/31 05:25:20;;;;;;;5.78;1.80;;;;;;;25.48;62.32;100685.69;4879417;29;20060;-80
2022/08/31 05:28:07;;;;;;;6.28;1.65;;;;;;;25.56;62.37;100689.19;4883202;29;20048;-80
2022/08/31 05:30:52;;;;;;;4.65;1.50;;;;;;;25.60;62.02;100689.16;4889186;29;20060;-80
2022/08/31 05:33:49;;;;;;;6.30;1.80;;;;;;;25.64;62.05;100690.69;4881141;29;20069;-80
2022/08/31 05:36:35;;;;;;;5.13;1.58;;;;;;;25.68;62.01;100690.63;4898442;29;20056;-80
2022/08/31 05:39:22;;;;;;;10.25;1.88;;;;;;;25.74;62.07;100697.31;4870227;29;20052;-80
2022/08/31 05:42:08;;;;;;;4.68;1.60;;;;;;;25.77;61.87;100693.69;4869682;29;20060;-81
2022/08/31 05:44:52;;;;;;;6.18;1.88;;;;;;;25.78;61.84;100689.69;4884999;29;20664;-82
2022/08/31 05:47:38;;;;;;;8.35;1.52;;;;;;;25.81;61.72;100694.41;4876087;29;20064;-82
2022/08/31 05:50:23;;;;;;;3.05;1.58;;;;;;;25.82;61.78;100696.78;4891093;29;20052;-81
2022/08/31 05:53:09;;;;;;;4.47;1.30;;;;;;;25.87;61.73;100695.53;4875222;29;20061;-81
2022/08/31 05:55:58;;;;;;;5.18;2.20;;;;;;;25.91;61.75;100704.63;4888040;29;20343;-81
2022/08/31 05:58:45;;;;;;;3.00;1.88;;;;;;;25.91;61.64;100699.84;4890865;29;20055;-81
2022/08/31 06:01:32;;;;;;;4.65;1.67;;;;;;;25.93;61.50;100696.66;4878502;29;20055;-82
2022/08/31 06:04:33;;;;;;;2.30;1.33;;;;;;;25.94;61.56;100703.81;4878368;29;20055;-82
2022/08/31 06:07:18;;;;;;;3.55;1.48;;;;;;;25.92;61.32;100697.84;4888195;29;20051;-82
2022/08/31 06:10:10;;;;;;;5.53;1.83;;;;;;;25.95;61.55;100713.75;4890188;29;20081;-82
2022/08/31 06:12:56;;;;;;;5.00;1.40;;;;;;;25.97;61.16;100708.53;4889126;29;20067;-82
2022/08/31 06:15:43;;;;;;;1.60;1.30;;;;;;;26.01;61.19;100716.84;4879791;29;20060;-82
2022/08/31 06:18:29;;;;;;;1.77;1.33;;;;;;;26.00;60.95;100713.28;4876101;29;20051;-82
2022/08/31 06:21:19;;;;;;;3.33;1.10;;;;;;;25.99;61.26;100708.91;4883499;29;20061;-82
2022/08/31 06:24:05;;;;;;;2.65;1.63;;;;;;;25.96;61.07;100704.94;4870853;29;20052;-82
2022/08/31 06:26:56;;;;;;;4.20;1.35;;;;;;;25.98;61.14;100707.31;4868093;29;20056;-84
2022/08/31 06:29:44;;;;;;;2.85;1.70;;;;;;;25.99;61.02;100717.25;4868265;29;20689;-82
2022/08/31 06:32:31;;;;;;;4.10;1.50;;;;;;;26.04;61.16;100722.38;4871203;29;20056;-83
2022/08/31 06:35:20;;;;;;;1.25;1.10;;;;;;;26.03;60.92;100720.00;4874317;29;20555;-83
2022/08/31 06:38:26;;;;;;;1.80;1.10;;;;;;;26.07;61.13;100718.72;4871233;29;20064;-84
2022/08/31 06:41:33;;;;;;;4.30;1.02;;;;;;;26.09;61.08;100724.69;4870348;29;20533;-84
2022/08/31 06:44:37;;;;;;;1.38;1.25;;;;;;;26.05;60.96;100725.94;4879259;29;20059;-84
2022/08/31 06:47:36;;;;;;;3.42;1.10;;;;;;;26.06;60.96;100725.50;4894835;29;20048;-84
2022/08/31 06:50:22;;;;;;;5.20;1.27;;;;;;;26.06;60.78;100728.28;4892412;29;20411;-83
2022/08/31 06:53:08;;;;;;;2.35;1.50;;;;;;;26.07;60.85;100721.50;4896341;29;20052;-82
2022/08/31 06:56:31;;;;;;;2.05;1.52;;;;;;;26.10;60.77;100719.91;4895211;29;20056;-84
2022/08/31 06:59:34;;;;;;;3.63;1.35;;;;;;;26.09;60.85;100719.09;4888661;29;20059;-83
2022/08/31 07:02:51;;;;;;;2.88;1.33;;;;;;;26.10;60.91;100720.69;4869534;29;20045;-83
2022/08/31 07:05:37;;;;;;;2.55;1.23;;;;;;;26.12;60.14;100720.25;4896647;29;20047;-83
2022/08/31 07:08:22;;;;;;;2.08;1.40;;;;;;;26.08;60.14;100714.75;4891820;29;20056;-83
2022/08/31 07:11:18;;;;;;;3.83;1.98;;;;;;;26.11;60.03;100716.66;4892906;29;20048;-83
2022/08/31 07:14:05;;;;;;;1.40;1.25;;;;;;;26.07;59.92;100709.56;4896112;29;20056;-84
2022/08/31 07:16:55;;;;;;;2.15;1.85;;;;;;;26.08;59.33;100719.53;4871066;29;20056;-83
2022/08/31 07:19:40;;;;;;;2.65;1.65;;;;;;;26.04;59.21;100713.22;4862687;29;20053;-83
2022/08/31 07:22:25;;;;;;;4.05;1.70;;;;;;;26.05;59.59;100712.00;4852999;29;20045;-84
2022/08/31 07:25:20;;;;;;;2.53;1.83;;;;;;;26.06;59.48;100716.38;4896052;29;20418;-84
2022/08/31 07:28:05;;;;;;;3.05;1.67;;;;;;;26.08;59.28;100723.09;4862756;29;20057;-84
2022/08/31 07:30:51;;;;;;;4.85;1.85;;;;;;;26.10;59.09;100726.28;4861281;29;20060;-85
2022/08/31 07:33:40;;;;;;;2.80;1.48;;;;;;;26.15;59.04;100727.78;4881373;29;20048;-84
2022/08/31 07:36:25;;;;;;;2.78;1.45;;;;;;;26.19;59.23;100728.53;4877830;29;20060;-82
2022/08/31 07:42:31;;;;;;;2.03;1.67;;;;;;;26.27;58.53;100733.59;4877081;29;20041;-84
2022/08/31 07:45:20;;;;;;;2.83;1.45;;;;;;;26.29;58.57;100742.34;4870493;29;20052;-84
2022/08/31 07:48:07;;;;;;;3.95;1.52;;;;;;;26.32;58.75;100744.25;4862817;29;20056;-83
2022/08/31 07:51:22;;;;;;;1.90;1.55;;;;;;;26.36;58.35;100738.66;4853611;29;20057;-83
2022/08/31 07:54:27;;;;;;;2.40;1.70;;;;;;;26.41;58.31;100738.16;4873635;29;20044;-83
2022/08/31 07:57:29;;;;;;;1.35;1.10;;;;;;;26.46;58.43;100736.91;4890194;29;20542;-84
2022/08/31 08:00:20;;;;;;;3.70;1.92;;;;;;;26.50;58.03;100748.78;4888426;29;20056;-84
2022/08/31 08:03:10;;;;;;;2.60;1.80;;;;;;;26.50;57.96;100744.00;4886708;29;20040;-84
2022/08/31 08:06:16;;;;;;;2.88;1.80;;;;;;;26.51;57.52;100748.38;4886384;29;20517;-84
2022/08/31 08:09:27;;;;;;;2.88;1.80;;;;;;;26.53;57.58;100737.56;4886387;29;20048;-84
2022/08/31 08:12:19;;;;;;;2.35;2.13;;;;;;;26.54;57.06;100738.34;4891570;29;20048;-84
2022/08/31 08:15:24;;;;;;;2.17;1.45;;;;;;;26.58;57.39;100744.66;4886370;29;20056;-84
2022/08/31 08:18:23;;;;;;;2.67;1.80;;;;;;;26.57;57.75;100740.28;4889845;29;20414;-83
2022/08/31 08:21:13;;;;;;;1.38;1.27;;;;;;;26.61;57.15;100744.63;4887334;29;20071;-84
2022/08/31 08:23:58;;;;;;;4.07;1.90;;;;;;;26.63;57.28;100741.38;4885821;29;20065;-84
2022/08/31 08:27:12;;;;;;;2.80;1.80;;;;;;;26.69;56.89;100750.84;4885732;29;20061;-84
2022/08/31 08:30:12;;;;;;;4.43;1.63;;;;;;;26.73;56.27;100755.16;4885403;29;20525;-83
2022/08/31 08:33:03;;;;;;;3.25;1.73;;;;;;;26.79;56.33;100755.47;4889556;29;20052;-84
2022/08/31 08:35:58;;;;;;;4.20;2.15;;;;;;;26.86;55.10;100751.75;4889504;29;20068;-84
2022/08/31 08:38:46;;;;;;;2.53;1.95;;;;;;;26.90;55.26;100746.94;4886935;29;20059;-84
2022/08/31 08:41:35;;;;;;;3.53;1.55;;;;;;;26.98;55.70;100749.16;4877764;29;20060;-84
2022/08/31 08:44:25;;;;;;;1.15;0.93;;;;;;;27.04;55.67;100744.66;4867651;29;20044;-84
2022/08/31 08:47:17;;;;;;;2.65;1.77;;;;;;;27.10;55.71;100745.75;4866828;29;20077;-84
2022/08/31 08:50:09;;;;;;;3.25;2.00;;;;;;;27.17;54.60;100740.03;4869763;29;20053;-84
2022/08/31 08:53:02;;;;;;;4.40;1.85;;;;;;;27.27;53.78;100740.28;4867412;29;20045;-84
2022/08/31 08:55:48;;;;;;;2.30;2.10;;;;;;;27.33;53.72;100742.13;4866395;29;20065;-84
2022/08/31 08:58:34;;;;;;;1.77;1.10;;;;;;;27.38;53.93;100738.81;4880599;29;20057;-84
2022/08/31 09:01:25;;;;;;;4.55;2.47;;;;;;;27.48;54.09;100734.25;4888489;29;20060;-84
2022/08/31 09:04:17;;;;;;;4.40;2.15;;;;;;;27.55;53.30;100739.72;4885244;29;20423;-84
2022/08/31 09:07:56;;;;;;;1.48;1.35;;;;;;;27.63;53.49;100741.94;4864641;29;20057;-84
2022/08/31 09:10:40;;;;;;;2.17;1.15;;;;;;;27.64;53.96;100751.09;4858622;29;20515;-84
2022/08/31 09:13:35;;;;;;;3.70;1.50;;;;;;;27.72;53.69;100751.75;4859459;29;20045;-84
2022/08/31 09:16:55;;;;;;;4.20;2.47;;;;;;;27.79;52.63;100746.00;4856310;29;20053;-85
2022/08/31 09:22:56;;;;;;;1.95;1.00;;;;;;;27.84;53.17;100743.47;4859193;29;20044;-84
2022/08/31 09:25:50;;;;;;;1.73;1.00;;;;;;;27.88;53.20;100747.00;4861209;29;20048;-84
2022/08/31 09:28:53;;;;;;;4.07;2.20;;;;;;;27.92;52.99;100746.91;4859756;29;20049;-84
2022/08/31 09:31:40;;;;;;;1.15;0.93;;;;;;;27.94;52.86;100736.88;4855533;29;20053;-84
2022/08/31 09:34:36;;;;;;;3.08;1.80;;;;;;;27.98;52.74;100734.00;4859752;29;20058;-84
2022/08/31 09:37:24;;;;;;;3.20;1.30;;;;;;;28.03;52.46;100723.09;4857250;29;20049;-84
2022/08/31 09:40:15;;;;;;;1.42;0.90;;;;;;;28.04;52.50;100724.66;4873276;29;20044;-84
2022/08/31 09:43:23;;;;;;;3.55;1.27;;;;;;;28.04;52.93;100724.66;4891840;29;20060;-84
2022/08/31 09:46:19;;;;;;;1.10;1.00;;;;;;;28.01;52.04;100717.13;4875976;29;20077;-84
2022/08/31 09:49:19;;;;;;;8.07;1.13;;;;;;;28.04;52.65;100713.47;4887708;29;20046;-84
2022/08/31 09:55:31;;;;;;;0.95;0.85;;;;;;;28.01;52.16;100705.16;4879782;29;20057;-84
2022/08/31 09:58:29;;;;;;;2.25;0.95;;;;;;;28.02;52.85;100695.56;4868135;29;20419;-84
2022/08/31 10:01:37;;;;;;;1.90;1.08;;;;;;;28.03;52.68;100697.16;4857555;29;20053;-84
2022/08/31 10:04:27;;;;;;;1.10;1.00;;;;;;;28.03;52.28;100694.34;4865349;29;20053;-85
2022/08/31 10:07:46;;;;;;;3.25;1.67;;;;;;;28.02;52.15;100696.34;4856121;29;20049;-86
2022/08/31 10:10:36;;;;;;;1.67;1.00;;;;;;;28.03;52.41;100691.56;4856295;29;20131;-85
2022/08/31 10:13:35;;;;;;;1.00;0.90;;;;;;;28.02;52.59;100685.16;4864169;29;20119;-86
2022/08/31 10:16:35;;;;;;;1.20;1.10;;;;;;;28.00;52.78;100682.00;4858082;29;20064;-85
2022/08/31 10:19:42;;;;;;;3.92;1.27;;;;;;;27.97;51.35;100666.13;4863769;29;20041;-84
2022/08/31 10:22:41;;;;;;;2.30;0.90;;;;;;;27.98;52.05;100673.28;4873653;29;20537;-85
2022/08/31 10:25:40;;;;;;;3.38;1.00;;;;;;;27.96;52.29;100666.53;4858974;29;20044;-83
2022/08/31 10:28:39;;;;;;;1.38;1.00;;;;;;;27.98;52.44;100656.50;4861203;29;20056;-83
2022/08/31 10:31:35;;;;;;;1.30;1.00;;;;;;;27.98;52.73;100638.94;4876479;29;20053;-84
2022/08/31 10:37:48;;;;;;;2.70;1.10;;;;;;;27.97;52.44;100629.78;4863283;29;20052;-82
2022/08/31 10:40:46;;;;;;;3.53;1.27;;;;;;;28.00;52.36;100631.69;4870293;29;20052;-84
2022/08/31 10:43:43;;;;;;;4.80;1.65;;;;;;;28.00;52.29;100619.72;4872569;29;20056;-84
2022/08/31 10:46:34;;;;;;;3.55;1.40;;;;;;;28.01;52.08;100633.25;4862724;29;20070;-83
2022/08/31 10:49:20;;;;;;;12.13;2.47;;;;;;;28.06;51.77;100629.94;4851177;29;20057;-83
2022/08/31 10:52:09;;;;;;;2.67;1.15;;;;;;;28.08;51.56;100627.50;4859637;29;20077;-83
2022/08/31 10:55:08;;;;;;;1.95;1.05;;;;;;;28.09;51.77;100620.66;4863356;29;20060;-85
2022/08/31 10:58:25;;;;;;;3.95;1.40;;;;;;;28.09;51.84;100620.66;4872219;29;20538;-83
2022/08/31 11:01:27;;;;;;;3.70;1.40;;;;;;;28.12;51.65;100635.03;4856928;29;20049;-85
2022/08/31 11:04:41;;;;;;;1.48;1.17;;;;;;;28.09;52.09;100629.06;4868524;29;20052;-84
2022/08/31 11:07:36;;;;;;;2.78;1.30;;;;;;;28.07;52.36;100625.94;4867590;29;20056;-84
2022/08/31 11:10:28;;;;;;;;;;;;;;;28.11;51.58;100625.84;4869748;23;20065;-78
2022/08/31 11:13:46;;;;;;;7.13;1.20;;;;;;;28.11;51.64;100623.03;4874595;29;19920;-81
2022/08/31 11:17:07;;;;;;;1.70;1.10;;;;;;;28.12;51.21;100627.44;4865876;29;20056;-80
2022/08/31 11:20:16;;;;;;;4.70;0.95;;;;;;;28.12;52.25;100621.06;4859547;29;20053;-79
2022/08/31 11:23:18;;;;;;;1.02;0.80;;;;;;;28.09;52.78;100617.88;4870284;29;20076;-77
2022/08/31 11:26:39;;;;;;;0.93;0.82;;;;;;;28.09;52.37;100615.06;4858600;29;20049;-80
2022/08/31 11:29:25;;;;;;;1.58;1.48;;;;;;;28.05;52.43;100622.78;4863108;29;20057;-81
2022/08/31 11:32:18;;;;;;;3.72;0.98;;;;;;;28.08;51.56;100623.94;4863298;29;20048;-77
2022/08/31 11:35:09;;;;;;;2.60;1.00;;;;;;;28.10;51.53;100624.25;4861372;29;20061;-79
2022/08/31 11:37:55;;;;;;;1.33;1.00;;;;;;;28.06;51.91;100621.56;4878033;29;20049;-78
2022/08/31 11:40:40;;;;;;;1.48;1.05;;;;;;;28.08;52.19;100615.53;4863011;29;20053;-78
2022/08/31 11:43:31;;;;;;;1.17;0.80;;;;;;;28.11;52.32;100613.84;4861517;29;20423;-78
2022/08/31 11:46:25;;;;;;;1.38;0.75;;;;;;;28.08;52.85;100599.53;4864929;29;20072;-79
2022/08/31 11:49:50;;;;;;;3.50;0.98;;;;;;;28.06;52.35;100588.00;4855478;29;20060;-77
2022/08/31 11:52:45;;;;;;;1.20;0.85;;;;;;;28.05;52.60;100582.84;4861814;29;20418;-78
2022/08/31 11:55:51;;;;;;;1.98;1.23;;;;;;;28.04;52.56;100582.06;4860678;29;20525;-79
2022/08/31 11:58:38;;;;;;;0.88;0.88;;;;;;;28.05;52.19;100582.84;4864549;29;20048;-77
2022/08/31 12:01:33;;;;;;;1.13;0.90;;;;;;;28.07;51.95;100592.38;4861165;29;20048;-79
2022/08/31 12:04:40;;;;;;;;;;;;;;;28.23;50.85;100596.41;4869653;29;20045;-78
2022/08/31 12:07:30;;;;;;;7.18;1.17;;;;;;;28.94;47.34;100600.09;4863850;29;19916;-77
2022/08/31 12:10:42;;;;;;;10.40;3.05;;;;;;;28.56;45.68;100603.50;4843281;29;20057;-79
2022/08/31 12:13:35;;;;;;;4.22;1.23;;;;;;;30.62;43.01;100611.19;4861163;29;20045;-77
2022/08/31 12:16:19;;;;;;;8.05;1.85;;;;;;;30.72;40.05;100612.84;4862274;29;20541;-80
2022/08/31 12:26:13;;;;;;;1.98;1.50;;;;;;;32.15;38.02;100602.03;4860651;29;20068;-78
2022/08/31 12:29:35;;;;;;;2.67;1.30;;;;;;;31.58;39.28;100597.19;4861117;29;20052;-78
2022/08/31 12:32:44;;;;;;;2.55;1.55;;;;;;;31.64;39.20;100592.53;4860747;29;20045;-79
2022/08/31 12:35:31;;;;;;;1.85;1.33;;;;;;;31.26;40.15;100587.94;4837723;29;20060;-79
2022/08/31 12:38:20;;;;;;;5.80;1.90;;;;;;;31.27;38.72;100583.91;4853630;29;20417;-79
2022/08/31 12:41:08;;;;;;;4.40;1.80;;;;;;;31.97;38.54;100584.31;4856630;29;20052;-78
2022/08/31 12:43:52;;;;;;;5.57;1.38;;;;;;;31.43;39.42;100571.63;4859382;29;20044;-78
2022/08/31 12:47:00;;;;;;;2.72;1.80;;;;;;;30.77;40.60;100567.31;4860263;29;20052;-80
2022/08/31 12:50:00;;;;;;;2.10;1.45;;;;;;;30.20;41.49;100560.91;4838977;29;20044;-80
2022/08/31 12:53:15;;;;;;;3.10;1.60;;;;;;;29.87;43.16;100556.81;4856660;29;20056;-80
2022/08/31 12:56:14;;;;;;;2.67;1.30;;;;;;;29.71;43.60;100561.28;4868341;29;20061;-80
2022/08/31 12:59:20;;;;;;;2.08;1.30;;;;;;;29.43;44.18;100559.41;4860906;29;20056;-79
2022/08/31 13:02:10;;;;;;;5.97;1.58;;;;;;;29.50;43.76;100553.59;4866562;29;20052;-80
2022/08/31 13:04:55;;;;;;;2.83;1.92;;;;;;;28.69;45.92;100553.19;4856952;29;20044;-78
2022/08/31 13:07:40;;;;;;;2.33;1.50;;;;;;;28.33;46.56;100556.19;4861480;29;20040;-80
2022/08/31 13:10:24;;;;;;;1.98;1.38;;;;;;;27.97;48.01;100551.50;4853431;29;20064;-80
2022/08/31 13:13:23;;;;;;;10.35;1.88;;;;;;;27.88;48.74;100539.34;4867601;29;20049;-80
2022/08/31 13:16:11;;;;;;;85.63;17.02;;;;;;;28.47;46.84;100548.19;4856212;29;20135;-82
2022/08/31 13:19:04;;;;;;;439.63;88.28;;;;;;;28.72;47.15;100529.94;4855878;29;20590;-79
2022/08/31 13:21:52;;;;;;;29.42;7.55;;;;;;;28.97;46.15;100534.81;4849754;29;20038;-77
2022/08/31 13:24:41;;;;;;;34.67;10.65;;;;;;;28.63;47.13;100527.75;4863094;29;20064;-77
2022/08/31 13:27:29;;;;;;;65.32;16.05;;;;;;;28.38;46.45;100522.88;4858039;29;20422;-79
2022/08/31 13:30:17;;;;;;;113.45;22.85;;;;;;;28.00;49.11;100519.84;4889824;29;20613;-79
2022/08/31 13:33:20;;;;;;;26.45;6.00;;;;;;;27.93;48.12;100514.47;4862393;29;20058;-77
2022/08/31 13:36:30;;;;;;;35.50;8.30;;;;;;;28.40;47.69;100514.00;4859600;29;20068;-77
2022/08/31 13:39:22;;;;;;;23.95;4.90;;;;;;;28.60;46.22;100495.06;4862141;29;20418;-79
2022/08/31 13:42:13;;;;;;;6.95;2.38;;;;;;;28.60;45.65;100494.28;4860746;29;20057;-78